Time;durP1;ratioP1;P1;durP2;ratioP2;P2;SDS_P1;SDS_P2;PMS_P1;PMS_P2;Temp;Humidity;BMP_temperature;BMP_pressure;BME280_temperature;BME280_humidity;BME280_pressure;Samples;Min_cycle;Max_cycle;Signal;HPM_P1;HPM_P2
2023/05/25 00:01:43;;;;;;;10.52;3.72;;;;;;;16.75;59.42;102081.13;4953682;28;20033;-42
2023/05/25 00:04:09;;;;;;;11.20;3.40;;;;;;;16.75;59.17;102075.81;4975727;28;20580;-40
2023/05/25 00:06:40;;;;;;;15.30;4.40;;;;;;;16.69;59.23;102083.31;4971927;28;20039;-39
2023/05/25 00:09:06;;;;;;;13.43;4.18;;;;;;;16.71;59.21;102084.91;4969914;28;20050;-41
2023/05/25 00:11:32;;;;;;;12.23;4.80;;;;;;;16.72;59.13;102086.63;4958281;28;20493;-38
2023/05/25 00:13:58;;;;;;;10.77;4.32;;;;;;;16.76;58.91;102087.31;4963825;28;20034;-39
2023/05/25 00:16:23;;;;;;;6.85;3.22;;;;;;;16.76;58.94;102088.13;4963501;28;20459;-40
2023/05/25 00:18:49;;;;;;;11.40;4.40;;;;;;;16.79;58.63;102083.59;4954915;28;20045;-41
2023/05/25 00:21:15;;;;;;;17.58;4.10;;;;;;;16.72;58.92;102083.97;4964364;28;20038;-40
2023/05/25 00:23:45;;;;;;;12.38;4.55;;;;;;;16.71;58.88;102078.75;4946786;28;20093;-39
2023/05/25 00:26:10;;;;;;;9.50;3.80;;;;;;;16.70;58.74;102083.22;4975737;28;20036;-39
2023/05/25 00:28:36;;;;;;;13.15;4.53;;;;;;;16.67;58.92;102072.78;4939064;28;20038;-39
2023/05/25 00:31:01;;;;;;;10.80;3.63;;;;;;;16.61;58.88;102073.16;4958176;28;20493;-39
2023/05/25 00:33:27;;;;;;;28.52;6.32;;;;;;;16.60;58.92;102071.44;4956884;28;20058;-39
2023/05/25 00:35:52;;;;;;;10.88;3.38;;;;;;;16.60;58.92;102071.44;4959031;28;20323;-39
2023/05/25 00:38:19;;;;;;;11.88;3.45;;;;;;;16.53;59.14;102068.31;4952318;28;20501;-39
2023/05/25 00:40:45;;;;;;;12.25;4.82;;;;;;;16.49;58.91;102066.78;4953593;28;20129;-39
2023/05/25 00:43:12;;;;;;;10.02;4.28;;;;;;;16.46;59.03;102064.34;4973733;28;20042;-39
2023/05/25 00:45:38;;;;;;;11.80;3.67;;;;;;;16.39;59.13;102068.31;4950610;28;20043;-39
2023/05/25 00:48:05;;;;;;;8.60;3.85;;;;;;;16.34;59.16;102068.59;4955989;28;20034;-38
2023/05/25 00:50:33;;;;;;;15.80;5.30;;;;;;;16.26;59.33;102070.88;4956012;28;20133;-39
2023/05/25 00:53:00;;;;;;;10.55;4.22;;;;;;;16.23;59.47;102073.72;4964151;28;20042;-39
2023/05/25 00:55:28;;;;;;;13.35;4.32;;;;;;;16.20;59.29;102079.22;4956041;28;20132;-41
2023/05/25 00:57:56;;;;;;;12.30;5.40;;;;;;;16.16;59.32;102073.25;4946606;28;20597;-38
2023/05/25 01:00:23;;;;;;;14.50;3.80;;;;;;;16.18;59.00;102070.47;4952072;28;20041;-42
2023/05/25 01:02:55;;;;;;;12.80;3.70;;;;;;;16.21;59.02;102070.31;4939070;28;20117;-41
2023/05/25 01:05:24;;;;;;;11.93;4.05;;;;;;;16.22;58.94;102074.66;4940049;28;20027;-39
2023/05/25 01:07:53;;;;;;;13.82;4.95;;;;;;;16.21;58.72;102065.84;4966197;28;20523;-39
2023/05/25 01:10:21;;;;;;;13.43;3.88;;;;;;;16.22;58.36;102072.00;4935201;28;20030;-38
2023/05/25 01:12:50;;;;;;;11.40;4.53;;;;;;;16.17;58.53;102069.66;4944974;28;20065;-39
2023/05/25 01:15:15;;;;;;;9.75;3.75;;;;;;;16.06;58.71;102070.28;4970482;28;20169;-38
2023/05/25 01:17:42;;;;;;;18.17;4.10;;;;;;;16.03;58.72;102073.13;4971497;28;20022;-39
2023/05/25 01:20:08;;;;;;;16.60;4.28;;;;;;;15.96;58.79;102066.44;4950380;28;20042;-39
2023/05/25 01:22:41;;;;;;;16.00;4.68;;;;;;;15.95;58.67;102070.06;4955171;28;20581;-41
2023/05/25 01:25:21;;;;;;;11.27;3.85;;;;;;;16.00;58.47;102065.31;4983474;28;20104;-39
2023/05/25 01:27:58;;;;;;;14.73;3.80;;;;;;;16.06;58.72;102072.06;4976381;28;20125;-38
2023/05/25 01:30:25;;;;;;;14.10;4.15;;;;;;;16.09;58.57;102078.06;4969049;28;20034;-41
2023/05/25 01:32:53;;;;;;;9.77;3.70;;;;;;;16.11;58.59;102080.63;4954629;28;20428;-39
2023/05/25 01:35:20;;;;;;;12.57;4.80;;;;;;;16.09;58.43;102077.19;4966985;28;20493;-38
2023/05/25 01:37:47;;;;;;;11.13;4.60;;;;;;;16.06;58.87;102074.72;4952179;28;20512;-39
2023/05/25 01:40:14;;;;;;;14.70;4.13;;;;;;;16.02;58.90;102074.06;4969745;28;20030;-41
2023/05/25 01:42:40;;;;;;;14.27;3.85;;;;;;;16.00;58.79;102073.28;4968498;28;20065;-42
2023/05/25 01:45:07;;;;;;;10.77;4.80;;;;;;;16.00;59.09;102067.97;4952437;28;20030;-39
2023/05/25 01:47:52;;;;;;;10.73;4.18;;;;;;;16.00;59.10;102062.66;4939428;28;20026;-38
2023/05/25 01:50:22;;;;;;;9.35;3.47;;;;;;;15.97;59.17;102062.84;4974284;28;20030;-39
2023/05/25 01:52:58;;;;;;;8.15;4.30;;;;;;;15.96;59.39;102066.44;4965899;28;20030;-38
2023/05/25 01:55:27;;;;;;;15.70;3.85;;;;;;;15.92;59.28;102060.47;4965928;28;21026;-39
2023/05/25 01:57:56;;;;;;;12.32;4.40;;;;;;;15.85;59.66;102059.16;4969984;28;20559;-39
2023/05/25 02:00:24;;;;;;;14.95;4.50;;;;;;;15.81;59.55;102062.88;4945089;28;20041;-41
2023/05/25 02:02:51;;;;;;;12.82;4.95;;;;;;;15.74;59.72;102067.69;4954968;28;20401;-38
2023/05/25 02:05:19;;;;;;;11.02;4.07;;;;;;;15.70;59.92;102063.50;4950245;28;20030;-39
2023/05/25 02:07:47;;;;;;;11.57;4.38;;;;;;;15.66;59.98;102068.16;4905910;28;1280639;-41
2023/05/25 02:10:13;;;;;;;9.18;4.78;;;;;;;15.64;59.63;102067.38;4967982;28;20069;-39
2023/05/25 02:12:39;;;;;;;11.38;5.00;;;;;;;15.60;60.07;102073.81;4931131;28;20027;-41
2023/05/25 02:15:05;;;;;;;11.82;4.00;;;;;;;15.59;60.12;102073.91;4944876;28;20104;-38
2023/05/25 02:17:30;;;;;;;10.50;4.32;;;;;;;15.60;60.12;102070.31;4949063;28;20058;-41
2023/05/25 02:19:56;;;;;;;17.40;4.93;;;;;;;15.58;59.90;102072.19;4954752;28;20129;-41
2023/05/25 02:22:22;;;;;;;14.98;5.05;;;;;;;15.57;60.08;102067.81;4941437;28;20037;-39
2023/05/25 02:24:48;;;;;;;9.95;5.18;;;;;;;15.54;60.01;102067.06;4955340;28;20477;-39
2023/05/25 02:27:14;;;;;;;16.35;5.35;;;;;;;15.47;60.32;102075.44;4956493;28;20073;-39
2023/05/25 02:29:40;;;;;;;11.05;5.55;;;;;;;15.41;60.45;102070.53;4950564;28;20038;-41
2023/05/25 02:32:06;;;;;;;19.55;8.13;;;;;;;15.37;60.42;102070.69;4944902;28;20573;-40
2023/05/25 02:34:31;;;;;;;29.65;15.70;;;;;;;15.38;60.48;102076.84;4964800;28;20117;-39
2023/05/25 02:36:57;;;;;;;14.48;7.22;;;;;;;15.30;60.56;102074.63;4963608;28;20026;-41
2023/05/25 02:39:26;;;;;;;13.95;5.13;;;;;;;15.22;60.65;102080.34;4942865;28;20026;-41
2023/05/25 02:41:52;;;;;;;13.48;5.40;;;;;;;15.21;60.82;102081.28;4934726;28;20031;-44
2023/05/25 02:44:18;;;;;;;12.43;4.60;;;;;;;15.23;60.71;102087.38;4963866;28;20040;-39
2023/05/25 02:46:43;;;;;;;11.23;5.30;;;;;;;15.27;60.65;102076.59;4949550;28;20134;-39
2023/05/25 02:49:09;;;;;;;13.48;4.53;;;;;;;15.30;60.45;102074.63;4953276;28;20027;-38
2023/05/25 02:51:35;;;;;;;12.93;5.00;;;;;;;15.31;60.47;102070.19;4971821;28;20980;-41
2023/05/25 02:54:01;;;;;;;15.43;5.47;;;;;;;15.32;60.39;102072.75;4956697;28;20128;-39
2023/05/25 02:56:27;;;;;;;10.75;5.68;;;;;;;15.23;60.66;102057.34;4945441;28;20485;-39
2023/05/25 02:58:53;;;;;;;13.40;4.45;;;;;;;15.14;60.69;102063.16;4952375;28;20338;-38
2023/05/25 03:01:18;;;;;;;13.18;6.70;;;;;;;15.14;60.67;102069.34;4957198;28;20118;-41
2023/05/25 03:03:45;;;;;;;12.55;5.68;;;;;;;15.14;60.61;102065.81;4940640;28;20061;-38
2023/05/25 03:06:12;;;;;;;18.92;6.97;;;;;;;15.12;60.51;102071.22;4965552;28;20023;-38
2023/05/25 03:08:39;;;;;;;14.65;4.65;;;;;;;15.12;60.33;102070.38;4954860;28;20042;-41
2023/05/25 03:11:05;;;;;;;18.17;8.18;;;;;;;15.09;60.62;102066.06;4974596;28;20026;-38
2023/05/25 03:13:31;;;;;;;10.50;4.75;;;;;;;15.01;60.61;102065.66;4949792;28;20026;-42
2023/05/25 03:15:57;;;;;;;22.38;7.93;;;;;;;14.99;60.60;102064.88;4968661;28;20150;-39
2023/05/25 03:18:23;;;;;;;12.82;6.07;;;;;;;14.99;60.71;102065.72;4941291;28;20623;-41
2023/05/25 03:20:48;;;;;;;16.42;5.57;;;;;;;15.02;60.60;102067.38;4941566;28;20026;-39
2023/05/25 03:23:17;;;;;;;12.63;4.97;;;;;;;14.94;60.74;102071.28;4954385;28;20481;-41
2023/05/25 03:25:43;;;;;;;13.82;4.47;;;;;;;14.86;60.83;102075.28;4972658;28;20027;-38
2023/05/25 03:28:08;;;;;;;10.10;4.90;;;;;;;14.76;60.99;102080.22;4954389;28;20081;-41
2023/05/25 03:30:34;;;;;;;10.20;3.80;;;;;;;14.51;61.79;102078.88;4936141;28;20049;-39
2023/05/25 03:32:59;;;;;;;15.43;6.05;;;;;;;14.40;61.89;102083.91;4956864;28;20046;-39
2023/05/25 03:35:25;;;;;;;12.13;5.38;;;;;;;14.32;62.15;102082.50;4966986;28;20057;-43
2023/05/25 03:37:51;;;;;;;13.80;4.95;;;;;;;14.28;62.05;102091.56;4981157;28;20033;-41
2023/05/25 03:40:16;;;;;;;10.05;4.97;;;;;;;14.24;62.25;102092.66;4946919;28;20072;-41
2023/05/25 03:42:42;;;;;;;15.93;5.43;;;;;;;14.17;62.29;102092.09;4970492;28;20036;-39
2023/05/25 03:45:08;;;;;;;10.77;4.82;;;;;;;14.13;62.51;102090.53;4940958;28;20036;-40
2023/05/25 03:47:40;;;;;;;13.90;5.43;;;;;;;14.13;62.47;102093.19;4950309;28;20038;-39
2023/05/25 03:50:06;;;;;;;9.80;4.45;;;;;;;14.09;62.58;102096.06;4958408;28;20045;-39
2023/05/25 03:52:32;;;;;;;12.02;4.93;;;;;;;14.11;62.28;102099.50;4972681;28;20508;-39
2023/05/25 03:55:00;;;;;;;15.65;7.13;;;;;;;14.08;62.48;102110.25;4937354;28;20041;-39
2023/05/25 03:57:26;;;;;;;10.23;5.03;;;;;;;14.03;62.61;102108.69;4968442;28;20030;-38
2023/05/25 03:59:52;;;;;;;12.10;5.45;;;;;;;13.98;62.67;102110.72;4935967;28;20030;-41
2023/05/25 04:02:17;;;;;;;12.27;4.95;;;;;;;14.03;62.73;102111.31;4954626;28;20041;-39
2023/05/25 04:04:43;;;;;;;11.25;5.25;;;;;;;14.10;62.63;102114.50;4973154;28;20053;-39
2023/05/25 04:07:09;;;;;;;16.05;5.68;;;;;;;14.16;62.37;102116.00;4970153;28;20041;-39
2023/05/25 04:09:35;;;;;;;17.38;4.97;;;;;;;14.22;62.55;102120.97;4972367;28;20057;-40
2023/05/25 04:12:01;;;;;;;13.05;6.05;;;;;;;14.32;62.44;102116.91;4976172;28;20030;-40
2023/05/25 04:14:27;;;;;;;16.33;5.25;;;;;;;14.44;61.90;102122.53;4956184;28;20038;-39
2023/05/25 04:16:52;;;;;;;11.27;5.47;;;;;;;14.55;61.76;102125.47;4953658;28;20045;-43
2023/05/25 04:19:18;;;;;;;14.48;5.75;;;;;;;14.63;61.86;102122.41;4953090;28;20033;-37
2023/05/25 04:21:44;;;;;;;15.98;6.18;;;;;;;14.72;61.59;102126.41;4948253;28;20134;-37
2023/05/25 04:24:10;;;;;;;12.55;4.40;;;;;;;14.77;61.73;102121.69;4972375;28;20018;-40
2023/05/25 04:26:38;;;;;;;12.75;4.28;;;;;;;14.81;61.54;102120.59;4952063;28;20058;-40
2023/05/25 04:29:03;;;;;;;13.35;5.18;;;;;;;14.84;61.66;102123.09;4945975;28;20049;-40
2023/05/25 04:31:29;;;;;;;9.95;4.10;;;;;;;14.83;61.64;102126.69;4957182;28;20031;-42
2023/05/25 04:33:55;;;;;;;14.43;6.10;;;;;;;14.85;61.47;102127.47;4953064;28;20026;-39
2023/05/25 04:36:22;;;;;;;11.95;5.28;;;;;;;14.93;61.61;102130.53;4931528;28;20041;-39
2023/05/25 04:38:50;;;;;;;10.85;3.88;;;;;;;15.00;61.24;102131.06;4974138;28;20100;-42
2023/05/25 04:41:17;;;;;;;15.05;4.22;;;;;;;15.07;61.15;102127.13;4940283;28;20030;-42
2023/05/25 04:43:44;;;;;;;10.05;3.63;;;;;;;15.16;60.68;102124.91;4968631;28;20034;-42
2023/05/25 04:46:10;;;;;;;12.43;4.25;;;;;;;15.17;60.59;102135.44;4965165;28;20061;-41
2023/05/25 04:48:37;;;;;;;8.43;3.97;;;;;;;15.16;60.60;102130.22;4965796;28;20022;-42
2023/05/25 04:51:03;;;;;;;10.48;3.78;;;;;;;15.13;60.51;102133.91;4929223;28;20116;-40
2023/05/25 04:53:31;;;;;;;8.27;4.00;;;;;;;15.06;60.51;102135.16;4951512;28;25311;-40
2023/05/25 04:55:57;;;;;;;12.18;3.42;;;;;;;15.11;60.52;102135.78;4960447;28;20077;-43
2023/05/25 04:58:23;;;;;;;10.55;4.15;;;;;;;15.19;60.23;102136.22;4955023;28;20161;-39
2023/05/25 05:00:49;;;;;;;16.35;4.10;;;;;;;15.23;60.04;102136.91;4952380;28;20022;-41
2023/05/25 05:03:17;;;;;;;10.30;4.07;;;;;;;15.17;60.05;102131.94;4954160;28;20038;-38
2023/05/25 05:05:43;;;;;;;11.00;3.60;;;;;;;15.15;60.29;102134.69;4953667;28;20035;-41
2023/05/25 05:08:09;;;;;;;4.25;2.40;;;;;;;15.09;60.06;102145.59;4939597;28;20038;-39
2023/05/25 05:10:34;;;;;;;12.35;5.10;;;;;;;15.13;60.33;102140.97;4972255;28;20041;-38
2023/05/25 05:13:00;;;;;;;11.85;4.57;;;;;;;15.20;60.29;102137.91;4953815;28;20437;-38
2023/05/25 05:15:26;;;;;;;9.60;4.10;;;;;;;15.30;60.01;102142.72;4960750;28;20398;-39
2023/05/25 05:17:53;;;;;;;9.73;3.72;;;;;;;15.37;60.08;102136.13;4937963;28;20037;-38
2023/05/25 05:20:19;;;;;;;12.27;3.83;;;;;;;15.31;59.87;102145.28;4972946;28;20041;-38
2023/05/25 05:22:44;;;;;;;13.45;5.05;;;;;;;15.25;59.69;102145.63;4969854;28;20030;-39
2023/05/25 05:25:13;;;;;;;9.20;4.18;;;;;;;15.30;59.74;102153.31;4951188;28;20096;-41
2023/05/25 05:27:39;;;;;;;12.65;4.07;;;;;;;15.30;59.56;102153.31;4969889;28;20405;-37
2023/05/25 05:30:06;;;;;;;12.95;4.13;;;;;;;15.32;59.61;102157.59;4974236;28;20022;-38
2023/05/25 05:32:32;;;;;;;11.30;3.92;;;;;;;15.32;59.52;102152.28;4964886;28;20042;-38
2023/05/25 05:34:57;;;;;;;13.77;4.47;;;;;;;15.38;59.45;102154.63;4952625;28;20030;-41
2023/05/25 05:37:23;;;;;;;12.43;4.32;;;;;;;15.45;59.33;102156.91;4968880;28;20045;-38
2023/05/25 05:39:51;;;;;;;11.57;4.25;;;;;;;15.45;59.42;102155.13;4949301;28;20413;-37
2023/05/25 05:42:17;;;;;;;14.45;4.57;;;;;;;15.47;59.55;102150.59;4939485;28;20034;-39
2023/05/25 05:44:44;;;;;;;10.52;4.22;;;;;;;15.50;59.48;102154.88;4954689;28;20068;-40
2023/05/25 05:47:13;;;;;;;12.68;4.50;;;;;;;15.55;59.37;102151.00;4930432;28;20135;-39
2023/05/25 05:49:38;;;;;;;10.38;4.15;;;;;;;15.58;59.53;102151.78;4966979;28;20030;-38
2023/05/25 05:52:05;;;;;;;25.73;5.05;;;;;;;15.66;59.21;102152.19;4955080;28;20042;-39
2023/05/25 05:54:31;;;;;;;10.25;3.50;;;;;;;15.74;58.84;102163.22;4955256;28;20133;-39
2023/05/25 05:56:56;;;;;;;14.40;3.90;;;;;;;15.81;58.61;102153.97;4965606;28;20120;-42
2023/05/25 05:59:22;;;;;;;10.13;3.80;;;;;;;15.89;58.63;102150.06;4938555;28;20076;-40
2023/05/25 06:01:48;;;;;;;10.25;3.70;;;;;;;15.91;58.56;102156.13;4972005;28;20505;-39
2023/05/25 06:04:16;;;;;;;7.55;3.40;;;;;;;15.92;58.30;102156.03;4953523;28;20049;-39
2023/05/25 06:06:44;;;;;;;8.48;3.30;;;;;;;15.91;58.45;102164.94;4954094;28;20281;-39
2023/05/25 06:09:09;;;;;;;10.57;3.72;;;;;;;15.95;58.42;102166.47;4955421;28;20042;-39
2023/05/25 06:11:38;;;;;;;11.07;3.40;;;;;;;16.05;58.49;102160.63;4970601;28;20393;-39
2023/05/25 06:14:05;;;;;;;10.40;3.55;;;;;;;16.12;58.26;102168.13;4950003;28;20034;-39
2023/05/25 06:16:30;;;;;;;10.48;3.35;;;;;;;16.12;58.19;102165.47;4954261;28;20516;-40
2023/05/25 06:18:56;;;;;;;13.32;4.10;;;;;;;16.16;58.19;102168.84;4968183;28;20046;-39
2023/05/25 06:21:22;;;;;;;10.52;5.10;;;;;;;16.23;58.37;102166.69;4943278;28;20026;-39
2023/05/25 06:23:47;;;;;;;9.10;3.78;;;;;;;16.29;57.95;102167.16;4950155;28;21048;-39
2023/05/25 06:26:13;;;;;;;14.43;3.92;;;;;;;16.35;57.71;102165.94;4938653;28;20034;-39
2023/05/25 06:28:40;;;;;;;9.80;4.85;;;;;;;16.41;57.60;102165.56;4937707;28;20034;-39
2023/05/25 06:31:05;;;;;;;11.18;3.63;;;;;;;16.44;57.62;102165.38;4958936;28;20499;-38
2023/05/25 06:33:31;;;;;;;11.57;3.50;;;;;;;16.48;57.39;102168.72;4932135;28;20034;-42
2023/05/25 06:35:59;;;;;;;7.20;3.20;;;;;;;16.45;57.34;102177.72;4936530;28;20089;-41
2023/05/25 06:38:26;;;;;;;8.02;3.35;;;;;;;16.45;57.28;102180.38;4969307;28;20500;-38
2023/05/25 06:40:51;;;;;;;9.35;3.30;;;;;;;16.50;57.23;102177.44;4953400;28;20506;-39
2023/05/25 06:43:17;;;;;;;9.02;4.07;;;;;;;16.59;57.17;102186.66;4957915;28;20037;-40
2023/05/25 06:45:43;;;;;;;8.00;3.20;;;;;;;16.65;56.74;102175.66;4949390;28;20030;-37
2023/05/25 06:48:08;;;;;;;13.48;3.92;;;;;;;16.68;56.61;102175.47;4972065;28;20038;-37
2023/05/25 06:50:34;;;;;;;12.45;4.22;;;;;;;16.72;56.14;102166.34;4967673;28;20405;-40
2023/05/25 06:53:02;;;;;;;8.18;2.95;;;;;;;16.81;56.00;102175.56;4939639;28;20038;-39
2023/05/25 06:55:28;;;;;;;7.40;3.33;;;;;;;16.83;55.88;102173.66;4986685;28;20137;-38
2023/05/25 06:57:57;;;;;;;8.15;3.58;;;;;;;16.91;55.62;102167.88;4936625;28;20030;-41
2023/05/25 07:00:23;;;;;;;8.65;3.13;;;;;;;16.96;55.35;102171.16;4949789;28;20493;-39
2023/05/25 07:02:48;;;;;;;11.38;3.28;;;;;;;17.03;55.80;102168.97;4952294;28;20153;-39
2023/05/25 07:05:14;;;;;;;11.15;3.80;;;;;;;17.06;55.50;102160.81;4941993;28;20038;-40
2023/05/25 07:07:40;;;;;;;9.23;3.15;;;;;;;17.11;55.62;102171.13;4949328;28;20038;-38
2023/05/25 07:10:06;;;;;;;12.02;3.50;;;;;;;17.12;55.18;102172.84;4965169;28;20113;-38
2023/05/25 07:12:32;;;;;;;10.00;2.90;;;;;;;17.12;55.06;102171.03;4957241;28;20060;-39
2023/05/25 07:14:58;;;;;;;11.85;3.38;;;;;;;17.12;55.22;102176.34;4939642;28;20113;-38
2023/05/25 07:17:25;;;;;;;10.52;3.00;;;;;;;17.17;55.07;102171.59;4939851;28;21245;-38
2023/05/25 07:19:51;;;;;;;7.70;3.88;;;;;;;17.16;55.02;102169.91;4933266;28;20035;-39
2023/05/25 07:22:18;;;;;;;10.25;3.45;;;;;;;17.22;54.91;102181.94;4956535;28;20054;-38
2023/05/25 07:24:45;;;;;;;10.52;2.72;;;;;;;17.27;54.91;102187.84;4981826;28;20013;-38
2023/05/25 07:27:11;;;;;;;10.48;4.35;;;;;;;17.29;54.60;102172.66;4950405;28;20042;-40
2023/05/25 07:29:37;;;;;;;12.20;3.22;;;;;;;17.31;54.42;102176.06;4969153;28;20042;-40
2023/05/25 07:32:03;;;;;;;9.43;3.42;;;;;;;17.38;54.32;102168.53;4937842;28;20026;-38
2023/05/25 07:34:29;;;;;;;10.13;3.03;;;;;;;17.42;54.29;102163.88;4952535;28;20038;-40
2023/05/25 07:36:56;;;;;;;11.02;3.25;;;;;;;17.46;53.90;102171.56;4938558;28;20129;-39
2023/05/25 07:39:22;;;;;;;11.90;2.95;;;;;;;17.51;53.53;102174.78;4960217;28;20030;-39
2023/05/25 07:41:48;;;;;;;8.85;2.50;;;;;;;17.57;53.18;102177.97;4970902;28;20054;-39
2023/05/25 07:44:14;;;;;;;9.25;2.70;;;;;;;17.63;53.03;102183.75;4953725;28;20113;-40
2023/05/25 07:46:39;;;;;;;13.23;3.17;;;;;;;17.64;52.62;102179.31;4974594;28;20464;-39
2023/05/25 07:49:10;;;;;;;9.40;3.00;;;;;;;17.61;52.39;102185.69;4958696;28;20042;-39
2023/05/25 07:51:36;;;;;;;8.50;3.30;;;;;;;17.65;52.67;102181.84;4943436;28;20030;-39
2023/05/25 07:54:01;;;;;;;13.55;2.55;;;;;;;17.73;52.50;102199.16;4958626;28;21995;-39
2023/05/25 07:56:27;;;;;;;12.32;2.85;;;;;;;17.76;52.09;102193.63;4955975;28;20039;-39
2023/05/25 07:58:53;;;;;;;9.65;2.92;;;;;;;17.75;51.71;102195.41;4954887;28;20504;-39
2023/05/25 08:01:19;;;;;;;11.25;2.63;;;;;;;17.84;51.74;102185.97;4956392;28;20437;-39
2023/05/25 08:03:48;;;;;;;6.97;2.53;;;;;;;17.92;51.53;102190.81;4949651;28;20066;-39
2023/05/25 08:06:13;;;;;;;9.73;3.15;;;;;;;18.03;51.66;102192.78;4937656;28;20733;-39
2023/05/25 08:08:40;;;;;;;5.50;2.80;;;;;;;18.12;51.64;102200.16;4957261;28;21204;-39
2023/05/25 08:11:06;;;;;;;10.73;2.63;;;;;;;18.17;51.29;102190.06;4958145;28;20046;-39
2023/05/25 08:13:32;;;;;;;7.43;2.28;;;;;;;18.21;51.31;102193.34;4971867;28;20057;-39
2023/05/25 08:15:58;;;;;;;6.53;2.80;;;;;;;18.26;51.25;102194.75;4955615;28;20744;-39
2023/05/25 08:18:24;;;;;;;9.23;2.78;;;;;;;18.35;51.13;102195.09;4944354;28;20038;-39
2023/05/25 08:20:50;;;;;;;8.77;3.08;;;;;;;18.43;51.19;102195.41;4944106;28;20457;-39
2023/05/25 08:23:16;;;;;;;6.88;2.88;;;;;;;18.50;51.36;102190.53;4939157;28;20042;-39
2023/05/25 08:25:42;;;;;;;6.18;2.40;;;;;;;18.52;50.86;102200.13;4954134;28;20089;-39
2023/05/25 08:28:07;;;;;;;7.85;2.67;;;;;;;18.58;50.79;102197.03;4966782;28;20117;-39
2023/05/25 08:30:34;;;;;;;5.15;1.73;;;;;;;18.57;50.18;102187.31;4950053;28;20500;-39
2023/05/25 08:32:59;;;;;;;9.10;2.92;;;;;;;18.67;50.58;102194.72;4939285;28;20106;-39
2023/05/25 08:35:25;;;;;;;6.68;2.75;;;;;;;18.61;50.62;102205.78;4954400;28;20185;-39
2023/05/25 08:37:51;;;;;;;7.10;2.17;;;;;;;18.63;50.55;102195.88;4956549;28;20038;-39
2023/05/25 08:40:21;;;;;;;12.60;2.95;;;;;;;18.75;50.42;102197.69;4969326;28;20041;-39
2023/05/25 08:42:47;;;;;;;8.05;3.00;;;;;;;18.86;50.49;102195.09;4962686;28;20041;-39
2023/05/25 08:45:13;;;;;;;5.47;2.88;;;;;;;18.96;50.05;102200.69;4952714;28;20030;-39
2023/05/25 08:47:43;;;;;;;10.52;2.72;;;;;;;19.08;50.25;102209.66;4981303;28;20093;-39
2023/05/25 08:50:10;;;;;;;9.98;3.60;;;;;;;19.15;50.38;102202.06;4973501;28;20057;-39
2023/05/25 08:52:44;;;;;;;8.18;1.75;;;;;;;19.25;50.43;102199.59;4950426;28;20040;-39
2023/05/25 08:55:11;;;;;;;12.27;3.20;;;;;;;19.28;50.29;102194.03;4951814;28;20041;-39
2023/05/25 08:57:51;;;;;;;11.32;3.20;;;;;;;19.37;50.93;102200.50;4971929;28;20057;-39
2023/05/25 09:00:24;;;;;;;8.82;3.88;;;;;;;19.29;50.89;102209.06;4973557;28;20492;-39
2023/05/25 09:03:08;;;;;;;9.20;3.70;;;;;;;19.21;51.20;102214.94;4958847;28;20037;-39
2023/05/25 09:05:35;;;;;;;7.47;3.35;;;;;;;19.21;51.39;102216.78;4965969;28;20030;-39
2023/05/25 09:08:03;;;;;;;7.60;3.50;;;;;;;19.24;51.07;102214.72;4945912;28;20042;-39
2023/05/25 09:10:31;;;;;;;8.75;2.85;;;;;;;19.24;51.02;102208.56;4973021;28;20035;-39
2023/05/25 09:12:58;;;;;;;10.45;3.70;;;;;;;19.28;51.08;102213.56;4939556;28;20045;-39
2023/05/25 09:15:24;;;;;;;9.63;3.28;;;;;;;19.31;50.91;102212.47;4951324;28;20057;-40
2023/05/25 09:17:50;;;;;;;7.88;3.03;;;;;;;19.30;51.22;102213.44;4962110;28;20047;-39
2023/05/25 09:20:18;;;;;;;8.43;3.45;;;;;;;19.21;51.08;102214.94;4940142;28;20038;-39
2023/05/25 09:22:45;;;;;;;13.48;2.95;;;;;;;19.22;50.60;102229.16;4960935;28;20108;-39
2023/05/25 09:25:16;;;;;;;5.00;1.95;;;;;;;19.14;51.00;102219.88;4966734;28;20026;-40
2023/05/25 09:27:44;;;;;;;10.15;3.17;;;;;;;19.17;50.92;102214.31;4942413;28;20026;-39
2023/05/25 09:30:09;;;;;;;13.15;5.68;;;;;;;19.21;51.13;102206.09;4949397;28;20501;-39
2023/05/25 09:32:35;;;;;;;10.65;3.15;;;;;;;19.29;51.37;102217.94;4970135;28;20038;-39
2023/05/25 09:35:14;;;;;;;13.95;3.17;;;;;;;19.40;51.14;102211.81;4951601;28;20070;-39
2023/05/25 09:37:41;;;;;;;9.73;3.00;;;;;;;19.42;50.65;102219.72;4951731;28;20497;-39
2023/05/25 09:40:10;;;;;;;12.35;3.70;;;;;;;19.47;50.73;102212.22;4966491;28;20469;-39
2023/05/25 09:42:37;;;;;;;8.68;3.50;;;;;;;19.43;50.45;102214.28;4965488;28;20034;-39
2023/05/25 09:45:04;;;;;;;7.65;3.53;;;;;;;19.44;51.04;102213.28;4965887;28;20409;-39
2023/05/25 09:47:30;;;;;;;12.23;3.20;;;;;;;19.48;51.05;102213.94;4969410;28;20556;-39
2023/05/25 09:49:57;;;;;;;11.85;3.30;;;;;;;19.50;51.23;102215.53;4947166;28;20042;-39
2023/05/25 09:52:23;;;;;;;8.88;2.97;;;;;;;19.50;50.75;102212.84;4959358;28;20049;-39
2023/05/25 09:54:50;;;;;;;11.38;3.47;;;;;;;19.54;50.44;102223.31;4985101;28;20037;-39
2023/05/25 09:57:18;;;;;;;7.50;2.90;;;;;;;19.51;50.15;102216.41;4938816;28;20037;-46
2023/05/25 09:59:44;;;;;;;8.23;3.28;;;;;;;19.56;49.92;102213.38;4980701;28;20030;-39
2023/05/25 10:02:10;;;;;;;9.07;3.17;;;;;;;19.55;49.52;102220.53;4971056;28;20079;-39
2023/05/25 10:04:37;;;;;;;9.73;2.95;;;;;;;19.60;49.34;102212.19;4975735;28;20019;-39
2023/05/25 10:07:03;;;;;;;9.25;3.03;;;;;;;19.63;49.07;102215.50;4978762;28;20113;-39
2023/05/25 10:09:30;;;;;;;8.55;3.28;;;;;;;19.68;48.95;102215.16;4972396;28;20066;-39
2023/05/25 10:11:57;;;;;;;7.72;2.97;;;;;;;19.78;49.07;102213.50;4977818;28;20120;-39
2023/05/25 10:14:27;;;;;;;6.10;2.75;;;;;;;19.88;48.66;102211.03;4960882;28;20034;-39
2023/05/25 10:17:03;;;;;;;7.43;2.83;;;;;;;19.93;48.58;102232.06;4963200;28;20366;-39
2023/05/25 10:19:45;;;;;;;9.75;2.58;;;;;;;19.90;48.15;102211.78;4976075;28;20030;-40
2023/05/25 10:22:31;;;;;;;4.80;2.47;;;;;;;19.95;47.90;102208.75;4974842;28;20086;-39
2023/05/25 10:25:07;;;;;;;17.25;8.13;;;;;;;19.98;47.97;102213.88;4958686;28;20781;-44
2023/05/25 10:27:45;;;;;;;7.93;3.72;;;;;;;20.04;48.02;102208.06;4973938;28;20489;-39
2023/05/25 10:30:13;;;;;;;9.55;3.08;;;;;;;20.12;48.38;102214.66;4975173;28;20489;-40
2023/05/25 10:32:41;;;;;;;10.65;4.00;;;;;;;20.15;47.82;102207.25;4953287;28;20041;-38
2023/05/25 10:35:09;;;;;;;6.82;2.63;;;;;;;20.26;47.85;102214.47;4971504;28;20039;-38
2023/05/25 10:37:35;;;;;;;8.98;2.92;;;;;;;20.31;47.59;102209.63;4955308;28;20048;-38
2023/05/25 10:40:02;;;;;;;8.50;2.72;;;;;;;20.35;47.34;102227.13;4953536;28;20122;-38
2023/05/25 10:42:28;;;;;;;6.75;2.22;;;;;;;20.36;46.70;102215.47;4973705;28;20390;-39
2023/05/25 10:44:55;;;;;;;7.15;2.70;;;;;;;20.34;46.42;102225.44;4955116;28;20049;-39
2023/05/25 10:47:24;;;;;;;4.90;2.35;;;;;;;20.38;46.47;102210.84;4974344;28;20045;-38
2023/05/25 10:49:54;;;;;;;6.25;3.38;;;;;;;20.46;46.35;102209.44;4958050;28;20030;-38
2023/05/25 10:52:32;;;;;;;6.13;3.00;;;;;;;20.58;46.18;102213.81;4967888;28;20053;-40
2023/05/25 10:55:03;;;;;;;10.02;2.88;;;;;;;20.59;46.39;102207.50;4965488;28;20076;-38
2023/05/25 10:57:29;;;;;;;8.57;2.72;;;;;;;20.65;46.46;102212.38;4956263;28;20051;-38
2023/05/25 11:00:04;;;;;;;6.65;2.58;;;;;;;20.68;46.01;102206.78;4956003;28;20050;-38
2023/05/25 11:02:46;;;;;;;5.40;2.53;;;;;;;20.66;45.91;102214.06;4970146;28;20030;-38
2023/05/25 11:05:38;;;;;;;9.35;2.38;;;;;;;20.66;45.12;102214.06;4950168;28;20081;-39
2023/05/25 11:08:10;;;;;;;7.45;2.45;;;;;;;20.63;45.41;102208.97;4967537;28;20679;-38
2023/05/25 11:10:47;;;;;;;5.07;2.22;;;;;;;20.62;45.40;102209.09;4967958;28;20104;-38
2023/05/25 11:13:39;;;;;;;10.80;2.67;;;;;;;20.59;45.87;102207.50;4972393;28;20073;-37
2023/05/25 11:16:16;;;;;;;;;;;;;;;20.58;45.39;102213.81;4974636;28;20509;-37
2023/05/25 11:18:50;;;;;;;7.70;2.58;;;;;;;20.64;46.18;102202.66;4983151;28;19922;-38
2023/05/25 11:21:20;;;;;;;5.03;2.35;;;;;;;20.74;45.15;102204.59;4982160;28;20084;-39